Time;durP1;ratioP1;P1;durP2;ratioP2;P2;SDS_P1;SDS_P2;PMS_P1;PMS_P2;Temp;Humidity;BMP_temperature;BMP_pressure;BME280_temperature;BME280_humidity;BME280_pressure;Samples;Min_cycle;Max_cycle;Signal;HPM_P1;HPM_P2
2023/09/30 00:02:15;;;;;;;10.35;8.48;;;;;;;;;;6272636;28;20040;-68
2023/09/30 00:05:21;;;;;;;9.90;6.05;;;;;;;;;;6266696;28;20056;-69
2023/09/30 00:08:23;;;;;;;10.90;7.68;;;;;;;;;;6259164;28;20050;-68
2023/09/30 00:11:25;;;;;;;11.65;9.02;;;;;;;;;;6320153;28;20597;-68
2023/09/30 00:14:29;;;;;;;11.20;8.23;;;;;;;;;;6282593;28;20051;-68
2023/09/30 00:17:32;;;;;;;14.27;9.00;;;;;;;;;;6305495;28;20040;-69
2023/09/30 00:20:35;;;;;;;14.73;9.25;;;;;;;;;;6233277;28;20042;-69
2023/09/30 00:23:37;;;;;;;11.35;9.88;;;;;;;;;;6253641;28;20040;-68
2023/09/30 00:26:39;;;;;;;12.25;7.68;;;;;;;;;;6338430;28;20062;-69
2023/09/30 00:29:41;;;;;;;11.48;8.65;;;;;;;;;;6281126;28;20056;-68
2023/09/30 00:32:43;;;;;;;13.63;8.05;;;;;;;;;;6280809;28;20041;-68
2023/09/30 00:35:46;;;;;;;11.48;8.30;;;;;;;;;;6250316;28;20342;-69
2023/09/30 00:38:48;;;;;;;16.77;9.80;;;;;;;;;;6298384;28;20047;-69
2023/09/30 00:41:50;;;;;;;14.80;7.80;;;;;;;;;;6281218;28;20042;-68
2023/09/30 00:44:52;;;;;;;14.05;6.57;;;;;;;;;;6294901;28;20097;-69
2023/09/30 00:47:54;;;;;;;12.35;6.78;;;;;;;;;;6278729;28;20877;-69
2023/09/30 00:50:57;;;;;;;15.07;7.07;;;;;;;;;;6301988;28;20050;-69
2023/09/30 00:54:00;;;;;;;11.50;9.10;;;;;;;;;;6274054;28;20054;-68
2023/09/30 00:57:02;;;;;;;13.48;10.25;;;;;;;;;;6292704;28;20050;-69
2023/09/30 01:00:06;;;;;;;12.00;9.02;;;;;;;;;;6315892;28;20837;-69
2023/09/30 01:03:08;;;;;;;10.95;6.85;;;;;;;;;;6279892;28;20043;-69
2023/09/30 01:06:10;;;;;;;16.65;8.88;;;;;;;;;;6260389;28;20048;-68
2023/09/30 01:09:12;;;;;;;17.40;8.45;;;;;;;;;;6270846;28;20047;-68
2023/09/30 01:12:15;;;;;;;12.68;9.38;;;;;;;;;;6279155;28;20823;-69
2023/09/30 01:15:17;;;;;;;16.02;9.52;;;;;;;;;;6291509;28;20062;-68
2023/09/30 01:18:20;;;;;;;11.38;9.10;;;;;;;;;;6271677;28;20058;-69
2023/09/30 01:21:23;;;;;;;14.38;10.85;;;;;;;;;;6304696;28;20041;-69
2023/09/30 01:24:29;;;;;;;16.35;11.15;;;;;;;;;;6293117;28;20052;-68
2023/09/30 01:27:31;;;;;;;17.42;11.43;;;;;;;;;;6302128;28;20051;-69
2023/09/30 01:30:34;;;;;;;14.68;9.98;;;;;;;;;;6261844;28;20051;-69
2023/09/30 01:33:36;;;;;;;17.83;9.38;;;;;;;;;;6229191;28;20042;-69
2023/09/30 01:36:38;;;;;;;11.70;8.80;;;;;;;;;;6307405;28;20051;-69
2023/09/30 01:39:40;;;;;;;11.77;8.38;;;;;;;;;;6313457;28;20544;-69
2023/09/30 01:42:43;;;;;;;14.38;10.70;;;;;;;;;;6270595;28;20050;-68
2023/09/30 01:45:51;;;;;;;14.20;8.85;;;;;;;;;;6277138;28;20036;-68
2023/09/30 01:48:54;;;;;;;13.70;10.43;;;;;;;;;;6286283;28;20106;-69
2023/09/30 01:51:57;;;;;;;19.98;10.13;;;;;;;;;;6294204;28;20046;-68
2023/09/30 01:55:00;;;;;;;12.65;8.77;;;;;;;;;;6227746;28;20064;-68
2023/09/30 01:58:02;;;;;;;14.50;8.18;;;;;;;;;;6233948;28;20081;-68
2023/09/30 02:01:05;;;;;;;16.52;8.60;;;;;;;;;;6292607;28;20131;-68
2023/09/30 02:04:07;;;;;;;11.63;8.85;;;;;;;;;;6279292;28;20050;-68
2023/09/30 02:07:09;;;;;;;10.80;7.28;;;;;;;;;;6243771;28;20433;-68
2023/09/30 02:10:11;;;;;;;20.17;10.43;;;;;;;;;;6274481;28;20191;-70
2023/09/30 02:13:13;;;;;;;11.70;8.40;;;;;;;;;;6222518;28;20053;-70
2023/09/30 02:16:15;;;;;;;12.88;7.20;;;;;;;;;;6219406;28;20142;-69
2023/09/30 02:19:19;;;;;;;11.20;6.47;;;;;;;;;;6294995;28;20054;-69
2023/09/30 02:22:21;;;;;;;11.25;7.68;;;;;;;;;;6304143;28;20048;-70
2023/09/30 02:25:23;;;;;;;12.10;9.68;;;;;;;;;;6327837;28;20044;-70
2023/09/30 02:28:25;;;;;;;12.30;8.88;;;;;;;;;;6251846;28;20054;-69
2023/09/30 02:31:27;;;;;;;16.00;6.82;;;;;;;;;;6282102;28;20520;-69
2023/09/30 02:34:30;;;;;;;15.23;10.68;;;;;;;;;;6234984;28;20057;-69
2023/09/30 02:37:35;;;;;;;15.43;9.35;;;;;;;;;;6264860;28;20057;-69
2023/09/30 02:40:38;;;;;;;12.93;9.52;;;;;;;;;;6233182;28;20058;-69
2023/09/30 02:43:40;;;;;;;13.15;9.52;;;;;;;;;;6268711;28;20114;-69
2023/09/30 02:46:42;;;;;;;13.43;9.32;;;;;;;;;;6264475;28;20051;-69
2023/09/30 02:49:44;;;;;;;10.73;8.98;;;;;;;;;;6286648;28;20082;-69
2023/09/30 02:52:47;;;;;;;13.05;9.07;;;;;;;;;;6231167;28;20042;-69
2023/09/30 02:55:52;;;;;;;13.23;9.50;;;;;;;;;;6301435;28;20051;-70
2023/09/30 02:58:54;;;;;;;16.88;6.40;;;;;;;;;;6285686;28;20049;-69
2023/09/30 03:01:56;;;;;;;15.70;9.00;;;;;;;;;;6295115;28;20050;-69
2023/09/30 03:04:58;;;;;;;10.45;7.63;;;;;;;;;;6253335;28;20684;-69
2023/09/30 03:08:05;;;;;;;14.65;9.02;;;;;;;;;;6250160;28;20503;-69
2023/09/30 03:11:07;;;;;;;13.52;9.73;;;;;;;;;;6300923;28;20058;-69
2023/09/30 03:14:11;;;;;;;10.63;8.95;;;;;;;;;;6239914;28;20126;-70
2023/09/30 03:17:13;;;;;;;11.77;9.07;;;;;;;;;;6212157;28;20045;-69
2023/09/30 03:20:19;;;;;;;13.93;8.77;;;;;;;;;;6280377;28;20056;-71
2023/09/30 03:23:21;;;;;;;10.27;5.68;;;;;;;;;;6227684;28;20053;-70
2023/09/30 03:26:23;;;;;;;17.15;9.80;;;;;;;;;;6243005;28;20054;-70
2023/09/30 03:29:26;;;;;;;13.35;10.20;;;;;;;;;;6308484;28;20135;-70
2023/09/30 03:32:29;;;;;;;14.90;9.85;;;;;;;;;;6233006;28;20130;-70
2023/09/30 03:35:32;;;;;;;13.95;10.27;;;;;;;;;;6294722;28;20047;-69
2023/09/30 03:38:34;;;;;;;14.35;9.18;;;;;;;;;;6259344;28;20072;-70
2023/09/30 03:41:36;;;;;;;11.30;10.05;;;;;;;;;;6256918;28;20058;-70
2023/09/30 03:44:39;;;;;;;13.77;10.55;;;;;;;;;;6240217;28;20131;-69
2023/09/30 03:47:42;;;;;;;14.98;9.43;;;;;;;;;;6253185;28;20055;-69
2023/09/30 03:50:45;;;;;;;13.98;10.02;;;;;;;;;;6285223;28;20057;-69
2023/09/30 03:53:47;;;;;;;13.57;10.55;;;;;;;;;;6291350;28;20050;-70
2023/09/30 03:56:49;;;;;;;13.30;8.13;;;;;;;;;;6235470;28;20460;-69
2023/09/30 03:59:53;;;;;;;10.15;6.43;;;;;;;;;;6278825;28;20067;-71
2023/09/30 04:02:58;;;;;;;12.02;9.25;;;;;;;;;;6238037;28;20070;-70
2023/09/30 04:06:05;;;;;;;11.65;9.80;;;;;;;;;;6280899;28;20562;-69
2023/09/30 04:09:10;;;;;;;11.00;8.73;;;;;;;;;;6291317;28;20056;-69
2023/09/30 04:12:12;;;;;;;14.25;8.85;;;;;;;;;;6257072;28;20038;-69
2023/09/30 04:15:15;;;;;;;14.00;9.18;;;;;;;;;;6285847;28;20063;-69
2023/09/30 04:18:20;;;;;;;11.93;8.48;;;;;;;;;;6244065;28;20473;-70
2023/09/30 04:21:21;;;;;;;15.98;9.63;;;;;;;;;;6290861;28;20055;-70
2023/09/30 04:24:24;;;;;;;13.50;10.48;;;;;;;;;;6237930;28;20086;-69
2023/09/30 04:27:26;;;;;;;12.63;9.98;;;;;;;;;;6224841;28;20049;-69
2023/09/30 04:30:32;;;;;;;12.90;9.32;;;;;;;;;;6217276;28;20119;-69
2023/09/30 04:33:35;;;;;;;16.73;9.15;;;;;;;;;;6275384;28;20044;-73
2023/09/30 04:36:38;;;;;;;12.18;8.80;;;;;;;;;;6264519;28;20050;-69
2023/09/30 04:39:40;;;;;;;17.05;9.48;;;;;;;;;;6249732;28;20053;-67
2023/09/30 04:42:44;;;;;;;15.20;10.10;;;;;;;;;;6234059;28;20057;-67
2023/09/30 04:45:52;;;;;;;15.23;10.50;;;;;;;;;;6261058;28;20050;-67
2023/09/30 04:48:54;;;;;;;14.45;9.50;;;;;;;;;;6226214;28;20044;-71
2023/09/30 04:51:56;;;;;;;13.50;9.88;;;;;;;;;;6257789;28;20053;-72
2023/09/30 04:55:01;;;;;;;15.70;6.18;;;;;;;;;;6286010;28;20445;-71
2023/09/30 04:58:05;;;;;;;12.43;9.23;;;;;;;;;;6261641;28;20052;-71
2023/09/30 05:01:08;;;;;;;12.80;9.98;;;;;;;;;;6258661;28;20637;-71
2023/09/30 05:04:10;;;;;;;15.00;10.05;;;;;;;;;;6241591;28;20035;-71
2023/09/30 05:07:13;;;;;;;17.35;11.13;;;;;;;;;;6247118;28;20494;-70
2023/09/30 05:10:17;;;;;;;23.65;10.20;;;;;;;;;;6237970;28;20042;-76
2023/09/30 05:13:19;;;;;;;12.15;8.23;;;;;;;;;;6227308;28;20046;-77
2023/09/30 05:16:22;;;;;;;14.23;6.57;;;;;;;;;;6273572;28;20046;-77
2023/09/30 05:19:25;;;;;;;24.05;15.95;;;;;;;;;;6319686;28;20043;-78
2023/09/30 05:22:27;;;;;;;28.23;18.15;;;;;;;;;;6283259;28;20087;-79
2023/09/30 05:25:31;;;;;;;46.20;27.88;;;;;;;;;;6297364;28;20075;-77
2023/09/30 05:28:34;;;;;;;32.40;21.38;;;;;;;;;;6286453;28;20118;-75
2023/09/30 05:31:38;;;;;;;21.55;15.48;;;;;;;;;;6280667;28;20587;-77
2023/09/30 05:34:41;;;;;;;22.23;13.73;;;;;;;;;;6220430;28;20447;-78
2023/09/30 05:37:45;;;;;;;11.65;10.25;;;;;;;;;;6277054;28;20138;-77
2023/09/30 05:40:48;;;;;;;17.30;9.73;;;;;;;;;;6296111;28;20058;-77
2023/09/30 05:43:59;;;;;;;14.07;8.18;;;;;;;;;;6282791;28;20040;-77
2023/09/30 05:47:02;;;;;;;11.73;8.38;;;;;;;;;;6232187;28;20053;-78
2023/09/30 05:50:07;;;;;;;8.55;6.22;;;;;;;;;;6267025;28;20045;-77
2023/09/30 05:53:11;;;;;;;13.60;8.70;;;;;;;;;;6221716;28;20053;-78
2023/09/30 05:56:15;;;;;;;13.30;9.60;;;;;;;;;;6313568;28;20044;-79
2023/09/30 05:59:21;;;;;;;10.57;6.43;;;;;;;;;;6254462;28;20069;-78
2023/09/30 06:02:25;;;;;;;9.80;6.00;;;;;;;;;;6283183;28;20205;-77
2023/09/30 06:05:31;;;;;;;11.98;7.78;;;;;;;;;;6274992;28;20038;-77
2023/09/30 06:08:34;;;;;;;11.73;10.57;;;;;;;;;;6270969;28;20543;-74
2023/09/30 06:11:38;;;;;;;14.07;8.20;;;;;;;;;;6288227;28;20049;-68
2023/09/30 06:14:40;;;;;;;13.23;8.32;;;;;;;;;;6235539;28;20051;-69
2023/09/30 06:17:44;;;;;;;12.93;5.32;;;;;;;;;;6236962;28;20436;-68
2023/09/30 06:20:46;;;;;;;11.15;6.80;;;;;;;;;;6236963;28;20073;-67
2023/09/30 06:23:54;;;;;;;13.00;8.02;;;;;;;;;;6241440;28;20608;-68
2023/09/30 06:26:56;;;;;;;14.38;8.35;;;;;;;;;;6274844;28;20106;-70
2023/09/30 06:29:58;;;;;;;12.10;8.50;;;;;;;;;;6268032;28;20074;-67
2023/09/30 06:33:01;;;;;;;12.65;8.65;;;;;;;;;;6266328;28;20179;-68
2023/09/30 06:36:10;;;;;;;14.45;7.30;;;;;;;;;;6275208;28;20052;-68
2023/09/30 06:39:13;;;;;;;9.95;5.45;;;;;;;;;;6235516;28;20934;-67
2023/09/30 06:42:16;;;;;;;13.40;5.20;;;;;;;;;;6240463;28;20059;-69
2023/09/30 06:45:19;;;;;;;10.25;4.95;;;;;;;;;;6238595;28;20069;-68
2023/09/30 06:48:22;;;;;;;10.45;6.18;;;;;;;;;;6247431;28;20047;-68
2023/09/30 06:51:26;;;;;;;15.15;5.95;;;;;;;;;;6259576;28;20039;-69
2023/09/30 06:54:28;;;;;;;11.80;5.40;;;;;;;;;;6200778;28;20777;-65
2023/09/30 06:57:36;;;;;;;10.60;7.43;;;;;;;;;;6269520;28;20073;-65
2023/09/30 07:00:39;;;;;;;13.70;8.35;;;;;;;;;;6235265;28;20057;-65
2023/09/30 07:03:41;;;;;;;9.35;5.93;;;;;;;;;;6280586;28;20046;-65
2023/09/30 07:06:43;;;;;;;10.13;5.32;;;;;;;;;;6291161;28;20067;-64
2023/09/30 07:09:47;;;;;;;11.43;5.43;;;;;;;;;;6218404;28;20054;-64
2023/09/30 07:12:49;;;;;;;14.02;7.45;;;;;;;;;;6237065;28;20042;-71
2023/09/30 07:15:51;;;;;;;14.38;8.77;;;;;;;;;;6283319;28;20046;-77
2023/09/30 07:18:55;;;;;;;12.45;8.70;;;;;;;;;;6233456;28;20038;-74
2023/09/30 07:21:58;;;;;;;10.93;8.07;;;;;;;;;;6246538;28;20070;-75
2023/09/30 07:25:07;;;;;;;11.52;8.10;;;;;;;;;;6326804;28;20525;-75
2023/09/30 07:28:11;;;;;;;12.40;6.32;;;;;;;;;;6295223;28;20048;-76
2023/09/30 07:31:13;;;;;;;12.15;6.18;;;;;;;;;;6286258;28;20046;-76
2023/09/30 07:34:16;;;;;;;13.98;6.18;;;;;;;;;;6236001;28;20138;-75
2023/09/30 07:37:20;;;;;;;13.10;9.40;;;;;;;;;;6245037;28;20054;-76
2023/09/30 07:40:22;;;;;;;14.75;8.35;;;;;;;;;;6274228;28;20046;-76
2023/09/30 07:43:24;;;;;;;10.95;5.65;;;;;;;;;;6318028;28;20028;-74
2023/09/30 07:46:27;;;;;;;17.40;5.70;;;;;;;;;;6285487;28;20528;-74
2023/09/30 07:49:30;;;;;;;9.60;5.60;;;;;;;;;;6248960;28;20563;-75
2023/09/30 07:52:33;;;;;;;13.65;5.30;;;;;;;;;;6235707;28;20060;-75
2023/09/30 07:55:35;;;;;;;13.52;6.95;;;;;;;;;;6279063;28;20053;-75
2023/09/30 07:58:37;;;;;;;9.45;5.32;;;;;;;;;;6272564;28;20152;-75
2023/09/30 08:01:40;;;;;;;15.65;6.55;;;;;;;;;;6319741;28;20055;-74
2023/09/30 08:04:43;;;;;;;15.25;5.18;;;;;;;;;;6260079;28;20055;-74
2023/09/30 08:07:46;;;;;;;13.73;6.82;;;;;;;;;;6276409;28;20379;-74
2023/09/30 08:10:48;;;;;;;17.42;8.07;;;;;;;;;;6258277;28;20170;-75
2023/09/30 08:13:50;;;;;;;12.02;7.82;;;;;;;;;;6279352;28;20041;-74
2023/09/30 08:16:53;;;;;;;15.80;8.85;;;;;;;;;;6304039;28;20050;-73
2023/09/30 08:19:56;;;;;;;11.25;4.60;;;;;;;;;;6266127;28;20045;-74
2023/09/30 08:22:59;;;;;;;14.00;4.88;;;;;;;;;;6306961;28;20224;-74
2023/09/30 08:26:01;;;;;;;16.70;5.88;;;;;;;;;;6283939;28;20036;-76
2023/09/30 08:29:03;;;;;;;11.75;7.60;;;;;;;;;;6260955;28;20069;-73
2023/09/30 08:32:07;;;;;;;11.43;6.68;;;;;;;;;;6277822;28;20069;-76
2023/09/30 08:35:11;;;;;;;11.57;5.82;;;;;;;;;;6258975;28;20038;-74
2023/09/30 08:38:13;;;;;;;8.70;5.32;;;;;;;;;;6284100;28;20050;-76
2023/09/30 08:41:36;;;;;;;20.40;8.13;;;;;;;;;;6287531;28;20069;-75
2023/09/30 08:44:41;;;;;;;10.98;5.45;;;;;;;;;;6300181;28;20133;-75
2023/09/30 08:47:43;;;;;;;12.15;5.30;;;;;;;;;;6303250;28;20035;-76
2023/09/30 08:50:48;;;;;;;8.52;4.78;;;;;;;;;;6295246;28;20231;-75
2023/09/30 08:53:52;;;;;;;7.40;5.40;;;;;;;;;;6281616;28;20049;-75
2023/09/30 08:56:55;;;;;;;11.45;4.18;;;;;;;;;;6282611;28;20045;-75
2023/09/30 08:59:57;;;;;;;5.93;4.22;;;;;;;;;;6305198;28;20040;-75
2023/09/30 09:02:59;;;;;;;14.15;5.20;;;;;;;;;;6286458;28;20055;-76
2023/09/30 09:06:02;;;;;;;11.13;5.13;;;;;;;;;;6290911;28;20056;-75
2023/09/30 09:09:17;;;;;;;10.07;4.95;;;;;;;;;;6242182;28;20058;-74
2023/09/30 09:12:20;;;;;;;10.93;5.43;;;;;;;;;;6227300;28;20629;-75
2023/09/30 09:15:28;;;;;;;10.60;6.03;;;;;;;;;;6267416;28;20042;-74
2023/09/30 09:18:38;;;;;;;13.63;6.30;;;;;;;;;;6270528;28;20049;-75
2023/09/30 09:22:04;;;;;;;11.43;6.10;;;;;;;;;;6231270;28;20050;-73
2023/09/30 09:25:07;;;;;;;6.72;5.80;;;;;;;;;;6290921;28;20046;-75
2023/09/30 09:28:10;;;;;;;12.25;6.25;;;;;;;;;;6271398;28;20133;-74
2023/09/30 09:31:29;;;;;;;13.65;7.80;;;;;;;;;;6280800;28;20039;-74
2023/09/30 09:34:31;;;;;;;11.00;5.18;;;;;;;;;;6264740;28;20042;-75
2023/09/30 09:37:34;;;;;;;11.05;7.07;;;;;;;;;;6296684;28;20566;-75
2023/09/30 09:40:38;;;;;;;10.00;6.15;;;;;;;;;;6243977;28;20041;-75
2023/09/30 09:43:43;;;;;;;8.10;5.40;;;;;;;;;;6281957;28;20047;-75
2023/09/30 09:46:47;;;;;;;11.73;5.10;;;;;;;;;;6267839;28;20436;-75
2023/09/30 09:49:53;;;;;;;11.10;5.68;;;;;;;;;;6300648;28;20042;-75
2023/09/30 09:52:56;;;;;;;6.28;4.53;;;;;;;;;;6333257;28;20043;-75
2023/09/30 09:55:59;;;;;;;7.05;3.08;;;;;;;;;;6306968;28;20093;-75
2023/09/30 09:59:04;;;;;;;13.63;3.90;;;;;;;;;;6263430;28;20045;-76
2023/09/30 10:02:12;;;;;;;;;;;;;;;;;;6302260;28;20050;-75
2023/09/30 10:05:15;;;;;;;7.03;4.15;;;;;;;;;;6324522;28;19928;-75
2023/09/30 10:08:20;;;;;;;7.95;4.03;;;;;;;;;;6308314;28;20056;-76
2023/09/30 10:11:23;;;;;;;5.90;3.50;;;;;;;;;;6319700;28;20046;-77
2023/09/30 10:14:36;;;;;;;7.18;3.90;;;;;;;;;;6267394;28;20094;-77
2023/09/30 10:18:11;;;;;;;6.65;3.83;;;;;;;;;;6272228;28;20050;-76
2023/09/30 10:21:18;;;;;;;12.65;4.13;;;;;;;;;;6323776;28;20063;-75
2023/09/30 10:24:23;;;;;;;6.88;4.93;;;;;;;;;;6294515;28;20106;-74
2023/09/30 10:27:28;;;;;;;6.93;3.83;;;;;;;;;;6293410;28;20054;-79
2023/09/30 10:30:31;;;;;;;7.40;3.70;;;;;;;;;;6260488;28;20044;-79
2023/09/30 10:33:33;;;;;;;6.38;2.60;;;;;;;;;;6262404;28;20518;-79
2023/09/30 10:36:39;;;;;;;7.50;3.30;;;;;;;;;;6291488;28;20035;-79
2023/09/30 10:40:02;;;;;;;8.88;3.72;;;;;;;;;;6276956;28;20068;-79
2023/09/30 10:43:05;;;;;;;9.45;2.75;;;;;;;;;;6279657;28;20420;-82
2023/09/30 10:46:29;;;;;;;7.63;4.13;;;;;;;;;;6252181;28;20613;-79
2023/09/30 10:49:31;;;;;;;9.40;4.75;;;;;;;;;;6330328;28;20043;-67
2023/09/30 10:52:33;;;;;;;7.10;4.65;;;;;;;;;;6224001;28;20073;-67
2023/09/30 10:55:36;;;;;;;7.18;4.43;;;;;;;;;;6247325;28;20053;-67
2023/09/30 10:58:46;;;;;;;9.85;6.10;;;;;;;;;;6284811;28;20051;-71
2023/09/30 11:01:52;;;;;;;11.48;4.35;;;;;;;;;;6233052;28;20049;-69
2023/09/30 11:04:55;;;;;;;6.90;5.03;;;;;;;;;;6244750;28;20155;-70
2023/09/30 11:08:01;;;;;;;7.93;3.53;;;;;;;;;;6225048;28;20534;-74
2023/09/30 11:11:04;;;;;;;9.40;5.03;;;;;;;;;;6308443;28;20049;-69
2023/09/30 11:14:27;;;;;;;12.82;4.82;;;;;;;;;;6268722;28;20048;-73
2023/09/30 11:17:31;;;;;;;9.57;6.93;;;;;;;;;;6240304;28;20453;-74
2023/09/30 11:20:34;;;;;;;16.10;11.63;;;;;;;;;;6292402;28;20054;-76
2023/09/30 11:23:37;;;;;;;10.45;4.72;;;;;;;;;;6320459;28;20046;-77
2023/09/30 11:26:41;;;;;;;7.82;5.18;;;;;;;;;;6277736;28;20042;-76
2023/09/30 11:29:49;;;;;;;14.05;6.50;;;;;;;;;;6262874;28;20043;-76
2023/09/30 11:33:00;;;;;;;13.27;6.85;;;;;;;;;;6262375;28;20046;-76
2023/09/30 11:36:05;;;;;;;20.48;8.50;;;;;;;;;;6280075;28;20126;-76
2023/09/30 11:39:09;;;;;;;9.30;5.18;;;;;;;;;;6239392;28;20056;-76
2023/09/30 11:42:17;;;;;;;7.75;5.00;;;;;;;;;;6292731;28;20442;-73
2023/09/30 11:45:22;;;;;;;8.18;5.13;;;;;;;;;;6216736;28;20038;-75
2023/09/30 11:48:26;;;;;;;8.07;5.65;;;;;;;;;;6248935;28;20059;-74
2023/09/30 11:51:28;;;;;;;12.00;7.10;;;;;;;;;;6252603;28;20046;-73
2023/09/30 11:54:43;;;;;;;10.43;6.18;;;;;;;;;;6297298;28;20036;-75
2023/09/30 11:57:45;;;;;;;10.85;6.20;;;;;;;;;;6229854;28;20438;-70
2023/09/30 12:00:50;;;;;;;12.18;6.22;;;;;;;;;;6273140;28;20084;-76
2023/09/30 12:03:55;;;;;;;10.73;5.60;;;;;;;;;;6255845;28;20567;-76
2023/09/30 12:07:00;;;;;;;9.55;4.93;;;;;;;;;;6273012;28;20158;-68
2023/09/30 12:10:03;;;;;;;11.32;5.78;;;;;;;;;;6212375;28;20603;-71
2023/09/30 12:13:05;;;;;;;10.88;5.20;;;;;;;;;;6237390;28;20130;-65
2023/09/30 12:16:07;;;;;;;9.25;5.63;;;;;;;;;;6238474;28;20042;-66
2023/09/30 12:19:10;;;;;;;10.40;3.08;;;;;;;;;;6225764;28;20601;-71
2023/09/30 12:22:12;;;;;;;11.38;4.72;;;;;;;;;;6223408;28;20047;-69
2023/09/30 12:25:14;;;;;;;8.23;4.30;;;;;;;;;;6247885;28;20046;-69
2023/09/30 12:28:17;;;;;;;6.55;5.28;;;;;;;;;;6257626;28;20492;-70
2023/09/30 12:31:20;;;;;;;13.80;4.95;;;;;;;;;;6234641;28;20050;-66
2023/09/30 12:34:26;;;;;;;8.80;4.80;;;;;;;;;;6287540;28;20040;-72
2023/09/30 12:37:29;;;;;;;6.40;3.78;;;;;;;;;;6239136;28;20150;-70
2023/09/30 12:40:31;;;;;;;6.45;5.13;;;;;;;;;;6235789;28;20058;-68
2023/09/30 12:43:34;;;;;;;7.53;4.70;;;;;;;;;;6233947;28;20061;-67
2023/09/30 12:46:37;;;;;;;10.07;4.65;;;;;;;;;;6255946;28;20486;-75
2023/09/30 12:49:39;;;;;;;7.03;5.95;;;;;;;;;;6306888;28;20128;-73
2023/09/30 12:52:42;;;;;;;8.77;4.70;;;;;;;;;;6282411;28;20057;-71
2023/09/30 12:55:44;;;;;;;12.50;4.85;;;;;;;;;;6229070;28;20042;-71
2023/09/30 12:58:46;;;;;;;8.98;5.20;;;;;;;;;;6226941;28;20441;-70
2023/09/30 13:01:53;;;;;;;8.18;5.72;;;;;;;;;;6302287;28;20043;-68
2023/09/30 13:04:55;;;;;;;11.85;5.78;;;;;;;;;;6238839;28;20062;-72
2023/09/30 13:07:58;;;;;;;11.43;5.97;;;;;;;;;;6257550;28;20955;-69
2023/09/30 13:11:03;;;;;;;7.78;5.55;;;;;;;;;;6221085;28;20044;-69
2023/09/30 13:14:05;;;;;;;9.63;5.22;;;;;;;;;;6218183;28;20046;-74
2023/09/30 13:17:07;;;;;;;9.32;5.55;;;;;;;;;;6256270;28;20038;-73
2023/09/30 13:20:11;;;;;;;9.93;6.00;;;;;;;;;;6313203;28;20038;-72
2023/09/30 13:23:13;;;;;;;11.10;5.72;;;;;;;;;;6273219;28;20162;-75
2023/09/30 13:26:15;;;;;;;9.10;5.30;;;;;;;;;;6297211;28;20563;-75
2023/09/30 13:29:18;;;;;;;6.82;4.32;;;;;;;;;;6277306;28;20106;-74
2023/09/30 13:32:20;;;;;;;8.73;4.90;;;;;;;;;;6244651;28;20041;-72
2023/09/30 13:35:22;;;;;;;7.05;4.55;;;;;;;;;;6255012;28;20041;-72
2023/09/30 13:38:24;;;;;;;7.95;4.78;;;;;;;;;;6296564;28;20060;-72
2023/09/30 13:41:27;;;;;;;9.52;4.03;;;;;;;;;;6222002;28;20050;-72
2023/09/30 13:44:29;;;;;;;10.02;4.68;;;;;;;;;;6241888;28;20046;-75
2023/09/30 13:47:31;;;;;;;7.93;3.97;;;;;;;;;;6294159;28;20047;-72
2023/09/30 13:50:33;;;;;;;7.72;4.32;;;;;;;;;;6275922;28;20115;-72
2023/09/30 13:53:36;;;;;;;8.43;4.85;;;;;;;;;;6264986;28;20085;-68
2023/09/30 13:56:38;;;;;;;10.32;4.65;;;;;;;;;;6220984;28;20091;-74
2023/09/30 13:59:42;;;;;;;9.02;4.05;;;;;;;;;;6279441;28;20043;-74
2023/09/30 14:02:45;;;;;;;7.30;4.47;;;;;;;;;;6232071;28;20046;-71
2023/09/30 14:05:47;;;;;;;7.00;3.92;;;;;;;;;;6259210;28;20049;-71
2023/09/30 14:08:49;;;;;;;10.07;4.32;;;;;;;;;;6220410;28;20750;-68
2023/09/30 14:11:53;;;;;;;11.07;4.55;;;;;;;;;;6251140;28;20057;-71
2023/09/30 14:14:55;;;;;;;12.25;3.90;;;;;;;;;;6251942;28;20043;-70
2023/09/30 14:18:01;;;;;;;12.40;4.90;;;;;;;;;;6243718;28;20061;-70
2023/09/30 14:21:04;;;;;;;10.73;4.70;;;;;;;;;;6217891;28;20073;-71
2023/09/30 14:24:06;;;;;;;5.47;4.03;;;;;;;;;;6247810;28;20593;-76
2023/09/30 14:27:08;;;;;;;9.88;4.15;;;;;;;;;;6227965;28;20052;-74
2023/09/30 14:30:13;;;;;;;10.15;4.50;;;;;;;;;;6258449;28;20264;-75
2023/09/30 14:33:18;;;;;;;12.20;4.30;;;;;;;;;;6273653;28;20045;-70
2023/09/30 14:36:20;;;;;;;9.55;3.60;;;;;;;;;;6238048;28;20137;-71
2023/09/30 14:39:23;;;;;;;8.05;3.70;;;;;;;;;;6246713;28;20726;-72
2023/09/30 14:42:26;;;;;;;23.35;15.80;;;;;;;;;;6291230;28;20058;-71
2023/09/30 14:45:28;;;;;;;7.25;4.32;;;;;;;;;;6247841;28;20041;-72
2023/09/30 14:48:30;;;;;;;14.60;4.70;;;;;;;;;;6262121;28;20049;-76
2023/09/30 14:51:36;;;;;;;10.75;4.05;;;;;;;;;;6309749;28;20043;-72
2023/09/30 14:54:38;;;;;;;15.88;9.55;;;;;;;;;;6295224;28;20080;-71
2023/09/30 14:57:40;;;;;;;7.30;4.22;;;;;;;;;;6280137;28;20526;-71
2023/09/30 15:00:42;;;;;;;11.50;5.18;;;;;;;;;;6267453;28;20049;-71
2023/09/30 15:03:44;;;;;;;25.05;16.38;;;;;;;;;;6278563;28;20047;-72
2023/09/30 15:06:46;;;;;;;11.05;6.80;;;;;;;;;;6277571;28;20038;-76
2023/09/30 15:09:50;;;;;;;26.55;19.42;;;;;;;;;;6317611;28;20055;-76
2023/09/30 15:12:53;;;;;;;22.55;12.48;;;;;;;;;;6261128;28;20180;-76
2023/09/30 15:15:55;;;;;;;8.55;5.05;;;;;;;;;;6302661;28;20063;-77
2023/09/30 15:18:59;;;;;;;9.85;8.57;;;;;;;;;;6304587;28;20057;-73
2023/09/30 15:22:01;;;;;;;13.07;4.85;;;;;;;;;;6280155;28;20039;-72
2023/09/30 15:25:04;;;;;;;12.40;4.28;;;;;;;;;;6310147;28;20449;-67
2023/09/30 15:28:07;;;;;;;8.60;4.38;;;;;;;;;;6259173;28;20044;-66
2023/09/30 15:31:10;;;;;;;9.30;3.55;;;;;;;;;;6260947;28;20621;-67
2023/09/30 15:34:13;;;;;;;8.75;5.10;;;;;;;;;;6316051;28;20043;-65
2023/09/30 15:37:15;;;;;;;10.68;5.60;;;;;;;;;;6258790;28;20051;-67
2023/09/30 15:40:17;;;;;;;7.95;4.43;;;;;;;;;;6293176;28;20047;-66
2023/09/30 15:43:22;;;;;;;7.78;4.80;;;;;;;;;;6233483;28;20039;-68
2023/09/30 15:46:24;;;;;;;8.43;4.78;;;;;;;;;;6240400;28;20048;-66
2023/09/30 15:49:26;;;;;;;9.32;5.00;;;;;;;;;;6273037;28;20050;-66
2023/09/30 15:52:29;;;;;;;13.98;5.15;;;;;;;;;;6280313;28;20054;-66
2023/09/30 15:55:31;;;;;;;11.18;5.40;;;;;;;;;;6304088;28;20046;-65
2023/09/30 15:58:33;;;;;;;7.13;4.80;;;;;;;;;;6290729;28;20058;-66
2023/09/30 16:01:36;;;;;;;12.93;4.68;;;;;;;;;;6268592;28;20080;-66
2023/09/30 16:04:38;;;;;;;7.28;4.13;;;;;;;;;;6307501;28;20085;-64
2023/09/30 16:07:41;;;;;;;7.43;5.35;;;;;;;;;;6279611;28;20040;-66
2023/09/30 16:10:46;;;;;;;8.23;5.95;;;;;;;;;;6315915;28;20050;-66
2023/09/30 16:13:49;;;;;;;10.05;5.70;;;;;;;;;;6231479;28;20053;-66
2023/09/30 16:16:51;;;;;;;9.93;5.47;;;;;;;;;;6229878;28;20589;-72
2023/09/30 16:19:53;;;;;;;8.60;5.93;;;;;;;;;;6324339;28;20051;-72
2023/09/30 16:22:55;;;;;;;9.93;5.68;;;;;;;;;;6244636;28;20040;-71
2023/09/30 16:25:57;;;;;;;9.98;5.20;;;;;;;;;;6324151;28;20056;-71
2023/09/30 16:28:59;;;;;;;14.45;6.03;;;;;;;;;;6321951;28;20048;-70
2023/09/30 16:32:01;;;;;;;8.70;4.35;;;;;;;;;;6265893;28;20527;-70
2023/09/30 16:35:07;;;;;;;9.90;6.57;;;;;;;;;;6293051;28;20046;-70
2023/09/30 16:38:09;;;;;;;15.35;6.57;;;;;;;;;;6246833;28;20223;-70
2023/09/30 16:41:11;;;;;;;9.85;6.32;;;;;;;;;;6277126;28;20035;-70
2023/09/30 16:44:13;;;;;;;9.02;6.65;;;;;;;;;;6239470;28;20036;-71
2023/09/30 16:47:15;;;;;;;7.40;4.65;;;;;;;;;;6226247;28;20042;-70
2023/09/30 16:50:17;;;;;;;9.35;6.25;;;;;;;;;;6306083;28;20047;-71
2023/09/30 16:53:20;;;;;;;10.55;7.32;;;;;;;;;;6225223;28;20440;-72
2023/09/30 16:56:22;;;;;;;8.68;5.65;;;;;;;;;;6231673;28;20082;-69
2023/09/30 16:59:24;;;;;;;9.50;5.93;;;;;;;;;;6233764;28;20053;-70
2023/09/30 17:02:26;;;;;;;12.48;6.03;;;;;;;;;;6238872;28;20057;-72
2023/09/30 17:05:28;;;;;;;14.35;6.18;;;;;;;;;;6273712;28;20041;-70
2023/09/30 17:08:31;;;;;;;12.68;5.57;;;;;;;;;;6278882;28;20059;-70
2023/09/30 17:11:33;;;;;;;9.65;5.80;;;;;;;;;;6249500;28;20054;-71
2023/09/30 17:14:36;;;;;;;7.68;4.50;;;;;;;;;;6240705;28;20136;-73
2023/09/30 17:17:39;;;;;;;12.63;5.82;;;;;;;;;;6230148;28;20046;-73
2023/09/30 17:20:44;;;;;;;9.73;6.85;;;;;;;;;;6257903;28;20448;-73
2023/09/30 17:23:46;;;;;;;9.98;6.65;;;;;;;;;;6269593;28;20050;-72
2023/09/30 17:26:48;;;;;;;10.13;6.60;;;;;;;;;;6239839;28;20044;-73
2023/09/30 17:29:50;;;;;;;10.80;6.20;;;;;;;;;;6212808;28;20056;-71
2023/09/30 17:32:53;;;;;;;14.40;8.13;;;;;;;;;;6215166;28;20046;-69
2023/09/30 17:36:05;;;;;;;9.70;5.15;;;;;;;;;;6235503;28;20440;-69
2023/09/30 17:39:07;;;;;;;9.63;5.72;;;;;;;;;;6221910;28;20065;-68
2023/09/30 17:42:09;;;;;;;11.82;4.25;;;;;;;;;;6248145;28;20040;-65
2023/09/30 17:45:15;;;;;;;8.98;3.92;;;;;;;;;;6243327;28;20053;-65
2023/09/30 17:48:17;;;;;;;13.63;4.32;;;;;;;;;;6261453;28;20057;-66
2023/09/30 17:51:22;;;;;;;8.75;4.13;;;;;;;;;;6220235;28;20079;-66
2023/09/30 17:54:24;;;;;;;11.73;4.78;;;;;;;;;;6213391;28;20060;-66
2023/09/30 17:57:26;;;;;;;14.90;4.13;;;;;;;;;;6240321;28;20407;-73
2023/09/30 18:00:28;;;;;;;7.18;4.05;;;;;;;;;;6274973;28;20051;-70
2023/09/30 18:03:30;;;;;;;8.40;6.75;;;;;;;;;;6223967;28;20084;-71
2023/09/30 18:06:32;;;;;;;9.60;6.55;;;;;;;;;;6226602;28;20042;-71
2023/09/30 18:09:34;;;;;;;9.90;5.57;;;;;;;;;;6216376;28;20105;-70